sensor_id;sensor_type;location;lat;lon;timestamp;P1;P2;P0
71794;PMS7003;59641;45.188;5.712;2022-12-29T00:01:52;33.67;32.00;21.00
71794;PMS7003;59641;45.188;5.712;2022-12-29T00:04:17;36.00;32.33;22.00
71794;PMS7003;59641;45.188;5.712;2022-12-29T00:06:43;32.00;27.67;21.00
71794;PMS7003;59641;45.188;5.712;2022-12-29T00:09:10;30.00;26.00;21.00
71794;PMS7003;59641;45.188;5.712;2022-12-29T00:11:37;36.33;30.00;20.67
71794;PMS7003;59641;45.188;5.712;2022-12-29T00:14:02;28.67;28.00;21.00
71794;PMS7003;59641;45.188;5.712;2022-12-29T00:16:46;28.00;26.67;17.33
71794;PMS7003;59641;45.188;5.712;2022-12-29T00:19:12;31.25;30.25;21.00
71794;PMS7003;59641;45.188;5.712;2022-12-29T00:21:56;17.75;17.00;8.00
71794;PMS7003;59641;45.188;5.712;2022-12-29T00:24:41;31.33;30.67;21.00
71794;PMS7003;59641;45.188;5.712;2022-12-29T00:27:27;1.00;0.00;0.00
71794;PMS7003;59641;45.188;5.712;2022-12-29T00:30:13;32.33;27.67;20.67
71794;PMS7003;59641;45.188;5.712;2022-12-29T00:33:25;35.75;32.00;21.00
71794;PMS7003;59641;45.188;5.712;2022-12-29T00:36:23;30.00;28.75;20.00
71794;PMS7003;59641;45.188;5.712;2022-12-29T00:39:03;31.75;28.00;20.25
71794;PMS7003;59641;45.188;5.712;2022-12-29T00:41:53;32.75;28.75;20.75
71794;PMS7003;59641;45.188;5.712;2022-12-29T00:44:37;28.25;25.00;18.50
71794;PMS7003;59641;45.188;5.712;2022-12-29T00:47:02;25.00;25.00;17.00
71794;PMS7003;59641;45.188;5.712;2022-12-29T00:49:29;28.50;25.00;18.00
71794;PMS7003;59641;45.188;5.712;2022-12-29T00:52:05;27.00;24.50;19.00
71794;PMS7003;59641;45.188;5.712;2022-12-29T00:54:36;30.00;25.75;20.00
71794;PMS7003;59641;45.188;5.712;2022-12-29T00:57:03;29.00;23.75;17.50
71794;PMS7003;59641;45.188;5.712;2022-12-29T00:59:30;26.00;23.25;18.50
71794;PMS7003;59641;45.188;5.712;2022-12-29T01:01:56;29.00;27.50;20.00
71794;PMS7003;59641;45.188;5.712;2022-12-29T01:04:22;29.75;26.50;18.50
71794;PMS7003;59641;45.188;5.712;2022-12-29T01:06:49;33.50;31.00;19.25
71794;PMS7003;59641;45.188;5.712;2022-12-29T01:09:15;31.33;29.33;20.33
71794;PMS7003;59641;45.188;5.712;2022-12-29T01:12:00;28.50;27.25;19.75
71794;PMS7003;59641;45.188;5.712;2022-12-29T01:14:26;27.25;23.50;13.00
71794;PMS7003;59641;45.188;5.712;2022-12-29T01:16:52;29.75;28.25;19.25
71794;PMS7003;59641;45.188;5.712;2022-12-29T01:19:18;28.75;25.75;18.00
71794;PMS7003;59641;45.188;5.712;2022-12-29T01:21:44;27.75;25.50;19.75
71794;PMS7003;59641;45.188;5.712;2022-12-29T01:24:10;35.25;30.00;20.25
71794;PMS7003;59641;45.188;5.712;2022-12-29T01:26:35;31.25;28.00;19.75
71794;PMS7003;59641;45.188;5.712;2022-12-29T01:29:01;28.75;26.25;17.00
71794;PMS7003;59641;45.188;5.712;2022-12-29T01:31:26;31.75;26.50;19.25
71794;PMS7003;59641;45.188;5.712;2022-12-29T01:33:51;30.67;28.00;21.00
71794;PMS7003;59641;45.188;5.712;2022-12-29T01:36:17;26.50;25.25;20.25
71794;PMS7003;59641;45.188;5.712;2022-12-29T01:38:43;34.00;31.67;21.00
71794;PMS7003;59641;45.188;5.712;2022-12-29T01:41:10;32.50;30.50;21.00
71794;PMS7003;59641;45.188;5.712;2022-12-29T01:49:04;32.00;27.33;20.67
71794;PMS7003;59641;45.188;5.712;2022-12-29T01:52:10;29.50;28.00;20.75
71794;PMS7003;59641;45.188;5.712;2022-12-29T01:54:31;33.00;29.50;19.50
71794;PMS7003;59641;45.188;5.712;2022-12-29T01:57:04;27.75;25.75;16.00
71794;PMS7003;59641;45.188;5.712;2022-12-29T01:59:34;27.50;23.75;17.50
71794;PMS7003;59641;45.188;5.712;2022-12-29T02:02:08;29.00;25.75;17.25
71794;PMS7003;59641;45.188;5.712;2022-12-29T02:04:33;25.75;25.50;20.25
71794;PMS7003;59641;45.188;5.712;2022-12-29T02:07:04;25.75;24.50;18.25
71794;PMS7003;59641;45.188;5.712;2022-12-29T02:09:34;23.50;21.25;17.50
71794;PMS7003;59641;45.188;5.712;2022-12-29T02:12:00;22.25;21.50;18.00
71794;PMS7003;59641;45.188;5.712;2022-12-29T02:14:25;28.25;23.75;17.50
71794;PMS7003;59641;45.188;5.712;2022-12-29T02:19:53;21.75;21.00;16.50
71794;PMS7003;59641;45.188;5.712;2022-12-29T02:28:06;27.25;22.00;16.75
71794;PMS7003;59641;45.188;5.712;2022-12-29T02:31:07;25.50;23.00;18.00
71794;PMS7003;59641;45.188;5.712;2022-12-29T02:36:29;29.25;28.00;19.75
71794;PMS7003;59641;45.188;5.712;2022-12-29T02:41:49;25.75;24.75;18.25
71794;PMS7003;59641;45.188;5.712;2022-12-29T02:47:19;20.50;19.75;14.00
71794;PMS7003;59641;45.188;5.712;2022-12-29T02:50:12;21.25;20.50;15.25
71794;PMS7003;59641;45.188;5.712;2022-12-29T02:52:46;14.75;13.75;8.00
71794;PMS7003;59641;45.188;5.712;2022-12-29T02:55:16;19.25;19.00;14.00
71794;PMS7003;59641;45.188;5.712;2022-12-29T02:57:41;22.75;20.75;16.00
71794;PMS7003;59641;45.188;5.712;2022-12-29T03:00:08;21.00;19.75;13.50
71794;PMS7003;59641;45.188;5.712;2022-12-29T03:10:53;24.50;20.75;13.50
71794;PMS7003;59641;45.188;5.712;2022-12-29T03:13:49;21.25;19.00;14.00
71794;PMS7003;59641;45.188;5.712;2022-12-29T03:16:40;21.75;21.25;16.00
71794;PMS7003;59641;45.188;5.712;2022-12-29T03:19:14;16.25;15.25;10.25
71794;PMS7003;59641;45.188;5.712;2022-12-29T03:21:50;25.50;20.25;16.00
71794;PMS7003;59641;45.188;5.712;2022-12-29T03:24:41;26.25;21.50;15.50
71794;PMS7003;59641;45.188;5.712;2022-12-29T03:27:10;21.50;21.50;15.50
71794;PMS7003;59641;45.188;5.712;2022-12-29T03:29:49;25.00;20.00;13.75
71794;PMS7003;59641;45.188;5.712;2022-12-29T03:32:19;20.75;20.50;14.75
71794;PMS7003;59641;45.188;5.712;2022-12-29T03:34:48;22.50;21.75;14.25
71794;PMS7003;59641;45.188;5.712;2022-12-29T03:37:17;21.75;20.50;14.75
71794;PMS7003;59641;45.188;5.712;2022-12-29T03:39:48;22.50;22.00;13.25
71794;PMS7003;59641;45.188;5.712;2022-12-29T03:42:16;21.00;18.50;12.50
71794;PMS7003;59641;45.188;5.712;2022-12-29T03:44:45;26.75;21.25;14.75
71794;PMS7003;59641;45.188;5.712;2022-12-29T03:47:12;20.50;18.00;14.00
71794;PMS7003;59641;45.188;5.712;2022-12-29T03:49:39;22.25;18.25;14.50
71794;PMS7003;59641;45.188;5.712;2022-12-29T03:52:05;21.75;19.75;15.00
71794;PMS7003;59641;45.188;5.712;2022-12-29T03:54:30;19.00;15.75;11.50
71794;PMS7003;59641;45.188;5.712;2022-12-29T03:56:56;18.00;18.00;13.50
71794;PMS7003;59641;45.188;5.712;2022-12-29T03:59:21;18.75;15.75;13.25
71794;PMS7003;59641;45.188;5.712;2022-12-29T04:01:47;18.50;16.00;12.75
71794;PMS7003;59641;45.188;5.712;2022-12-29T04:04:12;20.00;18.00;12.00
71794;PMS7003;59641;45.188;5.712;2022-12-29T04:06:38;17.25;16.00;12.50
71794;PMS7003;59641;45.188;5.712;2022-12-29T04:09:03;19.50;15.75;11.00
71794;PMS7003;59641;45.188;5.712;2022-12-29T04:11:29;17.00;14.75;11.25
71794;PMS7003;59641;45.188;5.712;2022-12-29T04:13:54;17.00;14.75;10.50
71794;PMS7003;59641;45.188;5.712;2022-12-29T04:16:20;16.50;14.75;10.50
71794;PMS7003;59641;45.188;5.712;2022-12-29T04:18:45;25.75;20.25;14.50
71794;PMS7003;59641;45.188;5.712;2022-12-29T04:21:10;16.75;11.75;11.00
71794;PMS7003;59641;45.188;5.712;2022-12-29T04:23:37;17.75;15.00;11.25
71794;PMS7003;59641;45.188;5.712;2022-12-29T04:26:03;15.00;15.00;11.00
71794;PMS7003;59641;45.188;5.712;2022-12-29T04:28:31;17.25;14.75;11.00
71794;PMS7003;59641;45.188;5.712;2022-12-29T04:30:56;17.25;17.25;11.25
71794;PMS7003;59641;45.188;5.712;2022-12-29T04:33:22;17.50;16.50;11.50
71794;PMS7003;59641;45.188;5.712;2022-12-29T04:35:47;20.25;16.00;10.00
71794;PMS7003;59641;45.188;5.712;2022-12-29T04:38:13;16.75;15.75;12.50
71794;PMS7003;59641;45.188;5.712;2022-12-29T04:40:39;18.75;14.75;9.75
71794;PMS7003;59641;45.188;5.712;2022-12-29T04:43:06;14.25;14.25;11.25
71794;PMS7003;59641;45.188;5.712;2022-12-29T04:45:32;16.25;15.50;10.00
71794;PMS7003;59641;45.188;5.712;2022-12-29T04:47:57;17.00;16.25;10.50
71794;PMS7003;59641;45.188;5.712;2022-12-29T04:50:23;17.25;16.50;11.00
71794;PMS7003;59641;45.188;5.712;2022-12-29T04:52:48;17.25;17.25;13.00
71794;PMS7003;59641;45.188;5.712;2022-12-29T04:55:13;18.00;17.25;12.75
71794;PMS7003;59641;45.188;5.712;2022-12-29T04:57:39;17.75;16.50;14.00
71794;PMS7003;59641;45.188;5.712;2022-12-29T05:00:04;20.00;17.50;13.00
71794;PMS7003;59641;45.188;5.712;2022-12-29T05:02:30;20.00;19.75;15.75
71794;PMS7003;59641;45.188;5.712;2022-12-29T05:04:56;20.50;18.75;15.75
71794;PMS7003;59641;45.188;5.712;2022-12-29T05:07:21;20.50;20.00;13.50
71794;PMS7003;59641;45.188;5.712;2022-12-29T05:09:46;19.50;16.00;13.25
71794;PMS7003;59641;45.188;5.712;2022-12-29T05:12:12;26.25;21.00;15.50
71794;PMS7003;59641;45.188;5.712;2022-12-29T05:14:37;20.00;19.25;15.00
71794;PMS7003;59641;45.188;5.712;2022-12-29T05:17:02;21.00;18.50;14.00
71794;PMS7003;59641;45.188;5.712;2022-12-29T05:19:28;19.00;18.75;14.25
71794;PMS7003;59641;45.188;5.712;2022-12-29T05:21:53;32.00;26.50;17.75
71794;PMS7003;59641;45.188;5.712;2022-12-29T05:24:19;20.25;16.00;8.75
71794;PMS7003;59641;45.188;5.712;2022-12-29T05:26:44;19.50;18.00;15.00
71794;PMS7003;59641;45.188;5.712;2022-12-29T05:29:10;20.25;17.75;14.50
71794;PMS7003;59641;45.188;5.712;2022-12-29T05:31:35;22.25;21.00;16.00
71794;PMS7003;59641;45.188;5.712;2022-12-29T05:34:01;26.75;24.50;16.00
71794;PMS7003;59641;45.188;5.712;2022-12-29T05:36:26;21.25;20.25;15.25
71794;PMS7003;59641;45.188;5.712;2022-12-29T05:38:52;23.75;19.75;16.00
71794;PMS7003;59641;45.188;5.712;2022-12-29T05:41:17;20.50;20.00;15.75
71794;PMS7003;59641;45.188;5.712;2022-12-29T05:43:43;20.25;18.00;15.00
71794;PMS7003;59641;45.188;5.712;2022-12-29T05:46:08;21.50;18.00;13.75
71794;PMS7003;59641;45.188;5.712;2022-12-29T05:48:33;27.00;23.00;15.25
71794;PMS7003;59641;45.188;5.712;2022-12-29T05:50:59;23.50;20.25;15.25
71794;PMS7003;59641;45.188;5.712;2022-12-29T05:53:24;18.75;18.75;15.00
71794;PMS7003;59641;45.188;5.712;2022-12-29T05:55:49;24.00;22.50;17.00
71794;PMS7003;59641;45.188;5.712;2022-12-29T05:58:15;24.50;22.25;16.25
71794;PMS7003;59641;45.188;5.712;2022-12-29T06:00:41;18.50;18.50;13.25
71794;PMS7003;59641;45.188;5.712;2022-12-29T06:03:07;22.50;21.50;14.25
71794;PMS7003;59641;45.188;5.712;2022-12-29T06:05:32;20.75;19.75;13.75
71794;PMS7003;59641;45.188;5.712;2022-12-29T06:07:57;22.50;20.75;15.50
71794;PMS7003;59641;45.188;5.712;2022-12-29T06:10:23;21.75;19.50;16.00
71794;PMS7003;59641;45.188;5.712;2022-12-29T06:12:48;22.75;20.00;17.00
71794;PMS7003;59641;45.188;5.712;2022-12-29T06:15:14;18.50;18.00;14.50
71794;PMS7003;59641;45.188;5.712;2022-12-29T06:17:39;20.00;18.50;14.75
71794;PMS7003;59641;45.188;5.712;2022-12-29T06:20:05;26.00;22.75;16.75
71794;PMS7003;59641;45.188;5.712;2022-12-29T06:22:32;25.50;22.00;16.00
71794;PMS7003;59641;45.188;5.712;2022-12-29T06:24:57;23.50;22.25;16.75
71794;PMS7003;59641;45.188;5.712;2022-12-29T06:27:23;19.50;18.25;13.25
71794;PMS7003;59641;45.188;5.712;2022-12-29T06:29:48;23.25;21.25;16.75
71794;PMS7003;59641;45.188;5.712;2022-12-29T06:32:14;19.00;17.75;13.00
71794;PMS7003;59641;45.188;5.712;2022-12-29T06:34:40;20.50;18.75;14.00
71794;PMS7003;59641;45.188;5.712;2022-12-29T06:37:06;17.50;17.00;12.00
71794;PMS7003;59641;45.188;5.712;2022-12-29T06:39:31;16.00;15.75;10.25
71794;PMS7003;59641;45.188;5.712;2022-12-29T06:41:56;17.00;16.00;13.50
71794;PMS7003;59641;45.188;5.712;2022-12-29T06:44:22;15.75;13.25;9.00
71794;PMS7003;59641;45.188;5.712;2022-12-29T06:46:48;17.00;16.00;11.50
71794;PMS7003;59641;45.188;5.712;2022-12-29T06:49:14;15.50;14.50;10.25
71794;PMS7003;59641;45.188;5.712;2022-12-29T06:51:39;16.25;16.25;13.00
71794;PMS7003;59641;45.188;5.712;2022-12-29T06:54:05;14.25;13.75;11.00
71794;PMS7003;59641;45.188;5.712;2022-12-29T06:56:30;15.00;14.00;10.00
71794;PMS7003;59641;45.188;5.712;2022-12-29T06:58:56;16.00;11.75;9.00
71794;PMS7003;59641;45.188;5.712;2022-12-29T07:01:21;17.50;14.25;11.00
71794;PMS7003;59641;45.188;5.712;2022-12-29T07:03:47;16.50;16.00;11.25
71794;PMS7003;59641;45.188;5.712;2022-12-29T07:06:12;12.50;12.25;9.00
71794;PMS7003;59641;45.188;5.712;2022-12-29T07:08:38;15.00;14.50;10.00
71794;PMS7003;59641;45.188;5.712;2022-12-29T07:11:03;10.00;10.00;9.50
71794;PMS7003;59641;45.188;5.712;2022-12-29T07:13:29;14.75;13.75;9.50
71794;PMS7003;59641;45.188;5.712;2022-12-29T07:15:55;15.00;14.25;10.75
71794;PMS7003;59641;45.188;5.712;2022-12-29T07:18:20;13.50;12.25;10.25
71794;PMS7003;59641;45.188;5.712;2022-12-29T07:20:45;16.75;16.50;12.75
71794;PMS7003;59641;45.188;5.712;2022-12-29T07:23:11;16.00;15.00;10.00
71794;PMS7003;59641;45.188;5.712;2022-12-29T07:25:36;16.50;15.25;12.00
71794;PMS7003;59641;45.188;5.712;2022-12-29T07:28:02;17.75;15.75;12.75
71794;PMS7003;59641;45.188;5.712;2022-12-29T07:30:28;16.50;14.75;10.50
71794;PMS7003;59641;45.188;5.712;2022-12-29T07:32:53;16.25;16.00;10.25
71794;PMS7003;59641;45.188;5.712;2022-12-29T07:35:19;19.25;17.25;12.75
71794;PMS7003;59641;45.188;5.712;2022-12-29T07:37:44;15.00;14.50;10.00
71794;PMS7003;59641;45.188;5.712;2022-12-29T07:40:10;12.75;12.75;9.25
71794;PMS7003;59641;45.188;5.712;2022-12-29T07:42:36;14.50;13.25;10.00
71794;PMS7003;59641;45.188;5.712;2022-12-29T07:45:01;13.25;13.25;10.25
71794;PMS7003;59641;45.188;5.712;2022-12-29T07:47:27;12.25;12.00;9.25
71794;PMS7003;59641;45.188;5.712;2022-12-29T07:49:52;16.00;16.00;10.75
71794;PMS7003;59641;45.188;5.712;2022-12-29T07:52:18;18.50;14.75;10.00
71794;PMS7003;59641;45.188;5.712;2022-12-29T07:54:43;15.75;14.00;9.00
71794;PMS7003;59641;45.188;5.712;2022-12-29T07:57:09;14.00;12.75;9.00
71794;PMS7003;59641;45.188;5.712;2022-12-29T07:59:34;10.50;10.50;9.00
71794;PMS7003;59641;45.188;5.712;2022-12-29T08:02:00;14.25;11.25;8.00
71794;PMS7003;59641;45.188;5.712;2022-12-29T08:04:25;12.75;12.50;9.00
71794;PMS7003;59641;45.188;5.712;2022-12-29T08:06:50;16.00;14.75;9.75
71794;PMS7003;59641;45.188;5.712;2022-12-29T08:09:16;16.25;16.00;12.00
71794;PMS7003;59641;45.188;5.712;2022-12-29T08:11:41;15.50;15.00;10.25
71794;PMS7003;59641;45.188;5.712;2022-12-29T08:14:08;14.40;12.20;8.80
71794;PMS7003;59641;45.188;5.712;2022-12-29T08:16:33;14.25;13.25;9.00
71794;PMS7003;59641;45.188;5.712;2022-12-29T08:18:58;11.00;8.75;6.50
71794;PMS7003;59641;45.188;5.712;2022-12-29T08:21:24;9.75;9.75;8.00
71794;PMS7003;59641;45.188;5.712;2022-12-29T08:23:51;11.00;11.00;8.80
71794;PMS7003;59641;45.188;5.712;2022-12-29T08:26:16;13.50;12.00;10.00
71794;PMS7003;59641;45.188;5.712;2022-12-29T08:28:42;9.50;8.50;6.50
71794;PMS7003;59641;45.188;5.712;2022-12-29T08:31:07;11.50;10.50;7.50
71794;PMS7003;59641;45.188;5.712;2022-12-29T08:33:33;11.00;11.00;7.00
71794;PMS7003;59641;45.188;5.712;2022-12-29T08:36:01;12.25;11.25;8.00
71794;PMS7003;59641;45.188;5.712;2022-12-29T08:38:28;11.00;11.00;7.50
71794;PMS7003;59641;45.188;5.712;2022-12-29T08:40:55;13.00;10.00;8.00
71794;PMS7003;59641;45.188;5.712;2022-12-29T08:43:21;10.50;8.50;8.00
71794;PMS7003;59641;45.188;5.712;2022-12-29T08:45:47;10.00;10.00;8.75
71794;PMS7003;59641;45.188;5.712;2022-12-29T08:48:13;12.50;10.50;8.00
71794;PMS7003;59641;45.188;5.712;2022-12-29T08:50:38;10.25;9.50;8.00
71794;PMS7003;59641;45.188;5.712;2022-12-29T08:53:03;12.50;10.75;8.25
71794;PMS7003;59641;45.188;5.712;2022-12-29T08:55:29;12.25;9.25;8.00
71794;PMS7003;59641;45.188;5.712;2022-12-29T08:57:54;12.25;11.00;7.75
71794;PMS7003;59641;45.188;5.712;2022-12-29T09:00:19;10.75;9.00;8.00
71794;PMS7003;59641;45.188;5.712;2022-12-29T09:02:45;10.75;9.25;8.25
71794;PMS7003;59641;45.188;5.712;2022-12-29T09:05:11;9.25;9.00;7.00
71794;PMS7003;59641;45.188;5.712;2022-12-29T09:07:37;12.00;9.75;7.00
71794;PMS7003;59641;45.188;5.712;2022-12-29T09:10:03;15.00;13.25;9.00
71794;PMS7003;59641;45.188;5.712;2022-12-29T09:12:29;12.60;12.20;10.00
71794;PMS7003;59641;45.188;5.712;2022-12-29T09:14:55;14.25;10.75;8.25
71794;PMS7003;59641;45.188;5.712;2022-12-29T09:17:21;10.25;10.00;8.25
71794;PMS7003;59641;45.188;5.712;2022-12-29T09:20:05;11.00;9.25;7.25
71794;PMS7003;59641;45.188;5.712;2022-12-29T09:22:30;12.00;11.00;7.00
71794;PMS7003;59641;45.188;5.712;2022-12-29T09:24:56;11.50;10.50;8.25
71794;PMS7003;59641;45.188;5.712;2022-12-29T09:27:21;14.00;12.00;9.25
71794;PMS7003;59641;45.188;5.712;2022-12-29T09:29:46;14.75;14.00;10.00
71794;PMS7003;59641;45.188;5.712;2022-12-29T09:32:12;19.00;15.50;11.25
71794;PMS7003;59641;45.188;5.712;2022-12-29T09:34:37;17.00;15.50;11.50
71794;PMS7003;59641;45.188;5.712;2022-12-29T09:37:02;16.50;14.00;10.00
71794;PMS7003;59641;45.188;5.712;2022-12-29T09:39:28;16.00;15.50;10.00
71794;PMS7003;59641;45.188;5.712;2022-12-29T09:47:17;10.50;10.50;7.75
71794;PMS7003;59641;45.188;5.712;2022-12-29T09:52:25;10.00;9.20;8.20
71794;PMS7003;59641;45.188;5.712;2022-12-29T09:55:04;16.75;10.50;9.00
71794;PMS7003;59641;45.188;5.712;2022-12-29T09:57:46;11.25;11.00;7.25
71794;PMS7003;59641;45.188;5.712;2022-12-29T10:00:22;10.50;10.50;7.75
71794;PMS7003;59641;45.188;5.712;2022-12-29T10:02:58;9.60;8.60;7.60
71794;PMS7003;59641;45.188;5.712;2022-12-29T10:22:23;17.75;16.75;12.00
71794;PMS7003;59641;45.188;5.712;2022-12-29T10:25:12;11.50;11.25;9.50
71794;PMS7003;59641;45.188;5.712;2022-12-29T10:27:42;14.75;12.00;10.00
71794;PMS7003;59641;45.188;5.712;2022-12-29T10:30:12;11.75;11.25;7.25
71794;PMS7003;59641;45.188;5.712;2022-12-29T10:32:50;10.50;10.50;8.25
71794;PMS7003;59641;45.188;5.712;2022-12-29T10:35:21;12.20;11.00;9.00
71794;PMS7003;59641;45.188;5.712;2022-12-29T10:40:28;12.00;12.00;10.00
71794;PMS7003;59641;45.188;5.712;2022-12-29T10:43:03;10.25;10.00;8.00
71794;PMS7003;59641;45.188;5.712;2022-12-29T10:45:41;12.50;10.75;9.00
71794;PMS7003;59641;45.188;5.712;2022-12-29T10:48:09;10.00;9.00;7.50
71794;PMS7003;59641;45.188;5.712;2022-12-29T10:50:44;11.00;11.00;9.00
71794;PMS7003;59641;45.188;5.712;2022-12-29T10:53:12;14.00;11.75;9.00
71794;PMS7003;59641;45.188;5.712;2022-12-29T10:55:48;11.60;9.40;7.80
71794;PMS7003;59641;45.188;5.712;2022-12-29T10:58:15;10.80;9.00;7.40
71794;PMS7003;59641;45.188;5.712;2022-12-29T11:00:40;11.25;10.75;9.00
71794;PMS7003;59641;45.188;5.712;2022-12-29T11:08:29;13.75;12.75;8.00
71794;PMS7003;59641;45.188;5.712;2022-12-29T11:11:04;16.00;11.50;8.25
71794;PMS7003;59641;45.188;5.712;2022-12-29T11:13:34;11.00;10.00;7.25
71794;PMS7003;59641;45.188;5.712;2022-12-29T11:16:11;9.00;8.00;6.60
71794;PMS7003;59641;45.188;5.712;2022-12-29T11:18:37;12.25;11.50;8.00
71794;PMS7003;59641;45.188;5.712;2022-12-29T11:21:06;9.00;9.00;8.00
71794;PMS7003;59641;45.188;5.712;2022-12-29T11:23:55;10.00;8.50;6.25
71794;PMS7003;59641;45.188;5.712;2022-12-29T11:26:25;15.00;12.60;9.40
71794;PMS7003;59641;45.188;5.712;2022-12-29T11:31:45;11.75;10.25;8.75
71794;PMS7003;59641;45.188;5.712;2022-12-29T11:36:45;12.40;10.00;7.80
71794;PMS7003;59641;45.188;5.712;2022-12-29T11:42:16;9.00;9.00;6.25
71794;PMS7003;59641;45.188;5.712;2022-12-29T11:44:46;12.25;10.50;8.50
71794;PMS7003;59641;45.188;5.712;2022-12-29T11:47:25;11.60;11.60;8.60
71794;PMS7003;59641;45.188;5.712;2022-12-29T11:49:55;10.40;10.20;6.80
71794;PMS7003;59641;45.188;5.712;2022-12-29T11:52:24;13.75;11.00;8.25
71794;PMS7003;59641;45.188;5.712;2022-12-29T11:54:53;12.00;11.50;8.00
71794;PMS7003;59641;45.188;5.712;2022-12-29T11:57:21;18.00;12.00;10.00
71794;PMS7003;59641;45.188;5.712;2022-12-29T11:59:49;12.00;12.00;9.00
71794;PMS7003;59641;45.188;5.712;2022-12-29T12:05:12;12.00;10.60;8.00
71794;PMS7003;59641;45.188;5.712;2022-12-29T12:07:47;11.00;9.40;8.00
71794;PMS7003;59641;45.188;5.712;2022-12-29T12:10:19;12.00;10.80;7.40
71794;PMS7003;59641;45.188;5.712;2022-12-29T12:12:53;12.50;11.25;9.00
71794;PMS7003;59641;45.188;5.712;2022-12-29T12:15:55;10.50;9.25;7.25
71794;PMS7003;59641;45.188;5.712;2022-12-29T12:18:17;11.20;10.60;8.20
71794;PMS7003;59641;45.188;5.712;2022-12-29T12:21:07;8.00;8.00;7.00
71794;PMS7003;59641;45.188;5.712;2022-12-29T12:26:30;11.40;9.60;6.60
71794;PMS7003;59641;45.188;5.712;2022-12-29T12:31:57;9.40;8.20;7.80
71794;PMS7003;59641;45.188;5.712;2022-12-29T12:34:37;11.40;9.40;7.20
71794;PMS7003;59641;45.188;5.712;2022-12-29T12:46:08;12.60;11.00;8.00
71794;PMS7003;59641;45.188;5.712;2022-12-29T13:00:22;8.75;8.75;7.00
71794;PMS7003;59641;45.188;5.712;2022-12-29T13:19:02;14.00;13.00;9.00
71794;PMS7003;59641;45.188;5.712;2022-12-29T13:27:02;10.60;10.00;7.60
71794;PMS7003;59641;45.188;5.712;2022-12-29T13:37:57;11.60;10.80;9.00
71794;PMS7003;59641;45.188;5.712;2022-12-29T13:40:28;12.50;10.00;8.75
71794;PMS7003;59641;45.188;5.712;2022-12-29T13:42:59;13.50;11.50;9.00
71794;PMS7003;59641;45.188;5.712;2022-12-29T13:45:26;13.00;12.40;9.20
71794;PMS7003;59641;45.188;5.712;2022-12-29T13:47:57;12.60;10.80;8.80
71794;PMS7003;59641;45.188;5.712;2022-12-29T13:50:45;12.40;11.40;10.00
71794;PMS7003;59641;45.188;5.712;2022-12-29T13:53:28;13.25;11.50;8.75
71794;PMS7003;59641;45.188;5.712;2022-12-29T13:58:50;11.75;11.00;8.00
71794;PMS7003;59641;45.188;5.712;2022-12-29T14:01:41;15.25;13.00;8.75
71794;PMS7003;59641;45.188;5.712;2022-12-29T14:04:25;13.75;12.25;10.00
71794;PMS7003;59641;45.188;5.712;2022-12-29T14:09:40;7.80;7.80;7.00
71794;PMS7003;59641;45.188;5.712;2022-12-29T14:12:21;11.75;10.00;7.75
71794;PMS7003;59641;45.188;5.712;2022-12-29T14:15:01;9.20;9.20;7.40
71794;PMS7003;59641;45.188;5.712;2022-12-29T14:17:32;7.00;7.00;5.80
71794;PMS7003;59641;45.188;5.712;2022-12-29T14:19:58;11.00;10.50;8.50
71794;PMS7003;59641;45.188;5.712;2022-12-29T14:22:24;11.50;11.50;7.75
71794;PMS7003;59641;45.188;5.712;2022-12-29T14:24:50;16.25;12.50;10.25
71794;PMS7003;59641;45.188;5.712;2022-12-29T14:34:48;15.50;12.00;9.00
71794;PMS7003;59641;45.188;5.712;2022-12-29T14:39:47;14.50;11.75;9.50
71794;PMS7003;59641;45.188;5.712;2022-12-29T14:42:13;17.75;11.25;7.50
71794;PMS7003;59641;45.188;5.712;2022-12-29T14:44:47;11.00;11.00;7.75
71794;PMS7003;59641;45.188;5.712;2022-12-29T14:47:38;10.20;9.00;7.20
71794;PMS7003;59641;45.188;5.712;2022-12-29T14:52:44;8.00;8.00;6.00
71794;PMS7003;59641;45.188;5.712;2022-12-29T14:57:43;8.20;8.20;6.20
71794;PMS7003;59641;45.188;5.712;2022-12-29T15:02:49;8.40;8.40;6.60
71794;PMS7003;59641;45.188;5.712;2022-12-29T15:05:29;12.20;10.40;7.60
71794;PMS7003;59641;45.188;5.712;2022-12-29T15:07:58;11.80;8.00;6.20
71794;PMS7003;59641;45.188;5.712;2022-12-29T15:10:26;12.00;10.60;6.80
71794;PMS7003;59641;45.188;5.712;2022-12-29T15:13:02;9.00;8.20;7.20
71794;PMS7003;59641;45.188;5.712;2022-12-29T15:15:35;8.20;7.60;6.60
71794;PMS7003;59641;45.188;5.712;2022-12-29T15:20:46;9.60;9.40;7.80
71794;PMS7003;59641;45.188;5.712;2022-12-29T15:23:16;10.20;8.60;5.80
71794;PMS7003;59641;45.188;5.712;2022-12-29T15:25:46;7.80;6.80;5.40
71794;PMS7003;59641;45.188;5.712;2022-12-29T15:28:19;5.80;5.80;5.00
71794;PMS7003;59641;45.188;5.712;2022-12-29T15:30:56;7.00;7.00;5.60
71794;PMS7003;59641;45.188;5.712;2022-12-29T15:33:27;6.50;5.50;4.00
71794;PMS7003;59641;45.188;5.712;2022-12-29T15:35:54;7.00;7.00;5.50
71794;PMS7003;59641;45.188;5.712;2022-12-29T15:38:23;6.00;6.00;5.40
71794;PMS7003;59641;45.188;5.712;2022-12-29T15:40:57;9.40;8.00;5.20
71794;PMS7003;59641;45.188;5.712;2022-12-29T15:43:31;7.60;7.60;6.00
71794;PMS7003;59641;45.188;5.712;2022-12-29T15:46:01;9.80;9.60;7.40
71794;PMS7003;59641;45.188;5.712;2022-12-29T15:48:27;8.60;8.40;7.60
71794;PMS7003;59641;45.188;5.712;2022-12-29T15:50:53;8.00;7.00;6.50
71794;PMS7003;59641;45.188;5.712;2022-12-29T15:53:29;10.50;10.25;8.25
71794;PMS7003;59641;45.188;5.712;2022-12-29T15:55:57;13.50;12.50;9.75
71794;PMS7003;59641;45.188;5.712;2022-12-29T15:58:27;12.80;9.80;8.00
71794;PMS7003;59641;45.188;5.712;2022-12-29T16:00:55;12.60;9.80;7.80
71794;PMS7003;59641;45.188;5.712;2022-12-29T16:03:25;16.60;14.20;9.60
71794;PMS7003;59641;45.188;5.712;2022-12-29T16:05:54;15.00;12.80;9.80
71794;PMS7003;59641;45.188;5.712;2022-12-29T16:08:24;13.60;13.00;11.00
71794;PMS7003;59641;45.188;5.712;2022-12-29T16:10:57;20.20;18.80;14.20
71794;PMS7003;59641;45.188;5.712;2022-12-29T16:15:49;13.00;13.00;9.00
71794;PMS7003;59641;45.188;5.712;2022-12-29T16:18:24;12.00;10.60;8.20
71794;PMS7003;59641;45.188;5.712;2022-12-29T16:20:53;11.20;11.00;9.00
71794;PMS7003;59641;45.188;5.712;2022-12-29T16:23:23;11.25;11.00;8.75
71794;PMS7003;59641;45.188;5.712;2022-12-29T16:25:52;11.75;10.25;8.25
71794;PMS7003;59641;45.188;5.712;2022-12-29T16:28:23;13.60;13.60;11.00
71794;PMS7003;59641;45.188;5.712;2022-12-29T16:30:57;15.60;12.80;10.00
71794;PMS7003;59641;45.188;5.712;2022-12-29T16:33:38;14.60;11.80;9.40
71794;PMS7003;59641;45.188;5.712;2022-12-29T16:38:49;15.20;13.00;9.80
71794;PMS7003;59641;45.188;5.712;2022-12-29T16:41:30;12.25;12.25;9.00
71794;PMS7003;59641;45.188;5.712;2022-12-29T16:46:43;18.75;18.75;12.50
71794;PMS7003;59641;45.188;5.712;2022-12-29T16:49:22;18.80;16.80;13.20
71794;PMS7003;59641;45.188;5.712;2022-12-29T16:51:48;17.75;15.75;10.50
71794;PMS7003;59641;45.188;5.712;2022-12-29T16:54:19;13.50;13.25;10.00